This is the latest recevied weather packets stored in our database for station/object BMCB-14. If no packets are shown the sender has not sent any weather packets the latest 10 day(s).
| Time | Temp. | Humidity | Pressure | Rain* | Wind** | Luminosity | Snow |
|---|---|---|---|---|---|---|---|
| 1777857646 | 11.67° C | 92% | 1014.1 hPa | 0 mm | - | 0 W/m² | - |
| 1777849248 | 11.67° C | 96% | 1014.4 hPa | 0 mm | - | 0 W/m² | - |
| 1777843248 | 11.67° C | 97% | 1014.5 hPa | 0 mm | - | 0 W/m² | - |
| 1777842647 | 11.67° C | 97% | 1014.5 hPa | 0 mm | - | 0 W/m² | - |
| 1777831850 | 13.33° C | 92% | 1013.7 hPa | 0 mm | - | 26 W/m² | - |
| 1777827047 | 13.33° C | 94% | 1013.7 hPa | 0 mm | - | 38 W/m² | - |
| 1777826446 | 13.33° C | 94% | 1013.7 hPa | 0 mm | - | 60 W/m² | - |
| 1777820447 | 13.33° C | 93% | 1014 hPa | 0 mm | - | 124 W/m² | - |
| 1777818046 | 13.33° C | 93% | 1014 hPa | 0 mm | - | 196 W/m² | - |
| 1777815644 | 13.33° C | 95% | 1014.2 hPa | 0.51 mm | - | 344 W/m² | - |
| 1777815047 | 12.78° C | 96% | 1014.4 hPa | 0.76 mm | - | 306 W/m² | - |
| 1777813245 | 12.78° C | 97% | 1014.6 hPa | 1.52 mm | - | 182 W/m² | - |
| 1777810849 | 12.22° C | 97% | 1014.6 hPa | 3.05 mm | - | 134 W/m² | - |
| 1777808446 | 11.67° C | 96% | 1014.6 hPa | 2.29 mm | - | 162 W/m² | - |
| 1777806055 | 12.78° C | 87% | 1014.7 hPa | 0.25 mm | - | 54 W/m² | - |
| 1777796446 | 15° C | 62% | 1013.8 hPa | 0 mm | - | 224 W/m² | - |
| 1777795846 | 15° C | 62% | 1013.9 hPa | 0 mm | - | 288 W/m² | - |
| 1777790445 | 13.89° C | 67% | 1013.6 hPa | 0 mm | - | 150 W/m² | - |
| 1777789847 | 13.89° C | 69% | 1013.6 hPa | 0 mm | - | 168 W/m² | - |
| 1777789246 | 13.89° C | 69% | 1013.6 hPa | 0 mm | - | 130 W/m² | - |
| 1777786246 | 13.33° C | 75% | 1013.7 hPa | 0 mm | - | 74 W/m² | - |
| 1777783246 | 13.33° C | 79% | 1013.8 hPa | 0 mm | - | 16 W/m² | - |
| 1777780243 | 13.33° C | 84% | 1014 hPa | 0 mm | - | 0 W/m² | - |
| 1777778445 | 12.78° C | 92% | 1014.1 hPa | 0 mm | - | 0 W/m² | - |
| 1777774845 | 13.33° C | 91% | 1014.3 hPa | 0 mm | - | 0 W/m² | - |
* Rain latest hour (hover to see other rain measurements)
** Current wind speed in m/s (hover to see current wind gust speed)